Terminal Aerodrome Forecast
Issued by NWS Charleston, SC

Home | Current Version | Previous Version | Text Only | Print | Product List | Glossary On
Versions: 1 2 3 4 5 6 7 8 9 10 11 12 13 14 15 16 17 18 19 20 21 22 23 24 25 26 27 28 29 30 31 32 33 34 35 36 37 38 39 40 41 42 43 44 45 46 47 48
000
FTUS42 KCHS 170500
TAFCHS
TAF
KCHS 170522Z 1706/1806 VRB03KT P6SM SCT025 BKN150
     FM170900 VRB02KT 2SM BR SCT002 BKN006
     FM171330 VRB06KT P6SM SCT015 BKN035
     FM171700 11006KT P6SM VCSH SCT025 BKN200=

USA.gov is the U.S. government's official web portal to all federal, state and local government web resources and services.